createdAt,value
2022-12-15T00:02:19.490Z,21.37
2022-12-15T00:05:05.612Z,20.87
2022-12-15T00:07:51.261Z,19.53
2022-12-15T00:10:36.829Z,21.07
2022-12-15T00:13:22.373Z,20.30
2022-12-15T00:16:08.067Z,21.90
2022-12-15T00:18:53.338Z,20.90
2022-12-15T00:21:38.572Z,20.20
2022-12-15T00:24:24.250Z,19.90
2022-12-15T00:27:09.651Z,20.57
2022-12-15T00:29:54.996Z,21.13
2022-12-15T00:32:40.966Z,20.10
2022-12-15T00:35:27.024Z,20.20
2022-12-15T00:38:12.298Z,19.20
2022-12-15T00:40:38.969Z,20.20
2022-12-15T00:43:05.844Z,21.30
2022-12-15T00:45:51.370Z,19.73
2022-12-15T00:48:18.130Z,20.27
2022-12-15T00:50:54.267Z,21.63
2022-12-15T00:53:41.517Z,21.10
2022-12-15T00:56:28.230Z,19.60
2022-12-15T00:59:13.722Z,20.07
2022-12-15T01:01:59.538Z,20.60
2022-12-15T01:04:45.562Z,19.83
2022-12-15T01:07:31.065Z,21.20
2022-12-15T01:10:16.745Z,20.33
2022-12-15T01:13:02.188Z,19.43
2022-12-15T01:15:47.871Z,21.67
2022-12-15T01:18:33.118Z,20.83
2022-12-15T01:21:01.828Z,20.60
2022-12-15T01:23:29.182Z,19.47
2022-12-15T01:25:56.197Z,21.83
2022-12-15T01:28:23.433Z,21.33
2022-12-15T01:30:50.948Z,21.43
2022-12-15T01:33:18.806Z,21.30
2022-12-15T01:35:49.549Z,21.43
2022-12-15T01:38:16.299Z,21.13
2022-12-15T01:41:05.019Z,21.27
2022-12-15T01:43:37.282Z,22.27
2022-12-15T01:46:09.817Z,21.90
2022-12-15T01:48:42.508Z,20.27
2022-12-15T01:51:33.602Z,21.97
2022-12-15T01:54:00.428Z,20.03
2022-12-15T01:56:33.847Z,19.67
2022-12-15T01:59:07.602Z,19.53
2022-12-15T02:01:34.776Z,19.90
2022-12-15T02:04:02.326Z,20.47
2022-12-15T02:06:29.764Z,20.80
2022-12-15T02:08:58.647Z,20.03
2022-12-15T02:11:42.882Z,21.10
2022-12-15T02:14:11.580Z,20.43
2022-12-15T02:17:14.399Z,21.57
2022-12-15T02:20:05.169Z,20.97
2022-12-15T02:22:56.869Z,20.60
2022-12-15T02:25:45.568Z,19.83
2022-12-15T02:28:42.855Z,20.30
2022-12-15T02:31:35.542Z,20.10
2022-12-15T02:34:13.432Z,19.80
2022-12-15T02:36:44.585Z,20.57
2022-12-15T02:39:14.910Z,19.27
2022-12-15T02:41:44.710Z,20.33
2022-12-15T02:44:22.756Z,19.30
2022-12-15T02:47:08.518Z,19.17
2022-12-15T02:50:04.681Z,20.70
2022-12-15T02:52:49.488Z,20.70
2022-12-15T02:55:29.550Z,20.37
2022-12-15T02:58:08.388Z,18.73
2022-12-15T03:00:41.126Z,20.13
2022-12-15T03:03:08.516Z,20.17
2022-12-15T03:05:35.815Z,19.77
2022-12-15T03:08:02.853Z,21.33
2022-12-15T03:10:29.702Z,18.73
2022-12-15T03:12:56.369Z,20.57
2022-12-15T03:15:23.160Z,19.97
2022-12-15T03:17:49.938Z,19.00
2022-12-15T03:20:16.707Z,19.13
2022-12-15T03:22:44.593Z,19.10
2022-12-15T03:25:11.292Z,19.37
2022-12-15T03:27:38.058Z,17.83
2022-12-15T03:30:06.075Z,18.20
2022-12-15T03:32:32.787Z,19.90
2022-12-15T03:35:01.078Z,30.10
2022-12-15T03:37:28.166Z,28.53
2022-12-15T03:39:54.939Z,29.60
2022-12-15T03:42:41.753Z,22.57
2022-12-15T03:45:08.925Z,19.23
2022-12-15T03:47:35.623Z,18.50
2022-12-15T03:50:02.398Z,19.40
2022-12-15T03:52:29.087Z,19.03
2022-12-15T03:54:55.761Z,21.30
2022-12-15T03:57:23.291Z,19.83
2022-12-15T03:59:50.099Z,18.90
2022-12-15T04:02:17.261Z,20.17
2022-12-15T04:04:44.333Z,20.97
2022-12-15T04:07:11.149Z,21.20
2022-12-15T04:09:37.973Z,20.67
2022-12-15T04:12:05.007Z,22.73
2022-12-15T04:14:31.887Z,22.20
2022-12-15T04:16:58.696Z,21.53
2022-12-15T04:19:43.910Z,21.13
2022-12-15T04:22:14.930Z,22.80
2022-12-15T04:25:03.228Z,22.07
2022-12-15T04:27:48.774Z,22.03
2022-12-15T04:30:34.592Z,21.10
2022-12-15T04:33:21.093Z,22.37
2022-12-15T04:36:09.209Z,21.63
2022-12-15T04:38:54.807Z,22.50
2022-12-15T04:41:41.958Z,22.73
2022-12-15T04:44:29.106Z,21.63
2022-12-15T04:47:14.583Z,22.67
2022-12-15T04:49:59.972Z,21.90
2022-12-15T04:52:46.492Z,21.70
2022-12-15T04:55:32.058Z,22.33
2022-12-15T04:58:17.400Z,21.10
2022-12-15T05:01:02.813Z,22.73
2022-12-15T05:03:48.161Z,23.37
2022-12-15T05:06:33.656Z,23.93
2022-12-15T05:09:19.270Z,22.13
2022-12-15T05:12:04.762Z,23.97
2022-12-15T05:14:50.364Z,21.47
2022-12-15T05:17:39.917Z,22.10
2022-12-15T05:20:27.556Z,24.40
2022-12-15T05:23:14.155Z,23.17
2022-12-15T05:26:00.222Z,22.47
2022-12-15T05:28:46.202Z,22.30
2022-12-15T05:31:32.295Z,22.33
2022-12-15T05:34:04.799Z,23.10
2022-12-15T05:36:32.807Z,22.30
2022-12-15T05:38:59.652Z,22.53
2022-12-15T05:41:26.909Z,21.93
2022-12-15T05:43:53.790Z,21.50
2022-12-15T05:46:20.755Z,22.87
2022-12-15T05:48:47.731Z,22.20
2022-12-15T05:51:15.059Z,22.77
2022-12-15T05:53:42.582Z,23.37
2022-12-15T05:56:11.960Z,21.07
2022-12-15T05:58:44.807Z,20.53
2022-12-15T06:01:15.569Z,22.37
2022-12-15T06:03:43.068Z,21.67
2022-12-15T06:06:11.405Z,22.30
2022-12-15T06:08:39.732Z,22.10
2022-12-15T06:11:06.992Z,24.33
2022-12-15T06:13:37.026Z,22.70
2022-12-15T06:16:15.692Z,23.93
2022-12-15T06:18:50.143Z,21.93
2022-12-15T06:21:23.697Z,22.03
2022-12-15T06:23:51.342Z,22.10
2022-12-15T06:26:25.437Z,23.27
2022-12-15T06:28:54.355Z,22.60
2022-12-15T06:31:25.467Z,22.40
2022-12-15T06:34:01.697Z,23.13
2022-12-15T06:36:30.718Z,22.53
2022-12-15T06:39:02.220Z,21.10
2022-12-15T06:41:32.257Z,22.80
2022-12-15T06:44:00.206Z,22.67
2022-12-15T06:46:29.040Z,22.43
2022-12-15T06:48:56.100Z,22.73
2022-12-15T06:51:23.082Z,22.83
2022-12-15T06:53:54.115Z,21.87
2022-12-15T06:56:27.284Z,22.03
2022-12-15T06:58:59.353Z,21.17
2022-12-15T07:01:26.370Z,23.17
2022-12-15T07:03:54.099Z,20.83
2022-12-15T07:06:21.410Z,22.53
2022-12-15T07:08:53.896Z,22.33
2022-12-15T07:11:21.900Z,22.93
2022-12-15T07:13:50.756Z,23.70
2022-12-15T07:16:18.142Z,23.63
2022-12-15T07:18:45.276Z,22.47
2022-12-15T07:21:12.654Z,22.43
2022-12-15T07:23:54.127Z,22.77
2022-12-15T07:26:21.881Z,22.73
2022-12-15T07:28:48.626Z,20.93
2022-12-15T07:31:19.511Z,22.90
2022-12-15T07:33:48.203Z,22.23
2022-12-15T07:36:15.395Z,22.97
2022-12-15T07:38:42.213Z,22.63
2022-12-15T07:41:10.303Z,21.97
2022-12-15T07:43:38.127Z,23.33
2022-12-15T07:46:06.205Z,22.90
2022-12-15T07:48:33.444Z,23.13
2022-12-15T07:51:11.069Z,23.57
2022-12-15T07:53:42.506Z,22.80
2022-12-15T07:56:10.425Z,23.27
2022-12-15T07:58:38.276Z,24.27
2022-12-15T08:01:07.411Z,23.57
2022-12-15T08:03:35.680Z,24.00
2022-12-15T08:06:20.439Z,21.97
2022-12-15T08:08:50.490Z,21.83
2022-12-15T08:11:20.809Z,23.07
2022-12-15T08:14:04.998Z,22.20
2022-12-15T08:16:34.851Z,21.90
2022-12-15T08:19:02.348Z,22.40
2022-12-15T08:21:31.195Z,21.83
2022-12-15T08:23:58.083Z,22.70
2022-12-15T08:26:30.026Z,22.43
2022-12-15T08:29:11.767Z,23.33
2022-12-15T08:31:44.624Z,23.43
2022-12-15T08:34:11.408Z,23.97
2022-12-15T08:36:38.259Z,24.17
2022-12-15T08:39:05.211Z,22.87
2022-12-15T08:41:33.065Z,25.70
2022-12-15T08:44:01.706Z,24.07
2022-12-15T08:46:33.815Z,23.50
2022-12-15T08:49:01.955Z,22.30
2022-12-15T08:51:30.568Z,22.30
2022-12-15T08:53:58.925Z,22.57
2022-12-15T08:56:26.661Z,22.83
2022-12-15T08:58:59.021Z,22.77
2022-12-15T09:01:27.299Z,21.53
2022-12-15T09:03:55.893Z,22.33
2022-12-15T09:06:25.853Z,22.40
2022-12-15T09:09:00.640Z,23.60
2022-12-15T09:11:28.916Z,22.80
2022-12-15T09:13:55.798Z,22.77
2022-12-15T09:16:23.524Z,23.80
2022-12-15T09:18:53.044Z,21.80
2022-12-15T09:21:23.129Z,22.07
2022-12-15T09:23:52.714Z,22.03
2022-12-15T09:26:21.719Z,22.43
2022-12-15T09:28:50.884Z,24.03
2022-12-15T09:31:23.468Z,23.47
2022-12-15T09:33:53.284Z,22.87
2022-12-15T09:36:20.393Z,21.53
2022-12-15T09:38:47.272Z,22.37
2022-12-15T09:41:14.041Z,22.47
2022-12-15T09:44:07.350Z,23.47
2022-12-15T09:47:29.572Z,22.17
2022-12-15T09:49:58.440Z,22.73
2022-12-15T09:52:43.186Z,21.07
2022-12-15T09:55:21.138Z,21.73
2022-12-15T09:57:56.548Z,23.27
2022-12-15T10:00:37.123Z,20.80
2022-12-15T10:03:40.611Z,21.97
2022-12-15T10:06:29.779Z,20.43
2022-12-15T10:09:08.421Z,21.53
2022-12-15T10:12:03.430Z,23.10
2022-12-15T10:14:38.010Z,20.57
2022-12-15T10:17:14.262Z,22.57
2022-12-15T10:19:45.692Z,21.73
2022-12-15T10:22:23.344Z,21.90
2022-12-15T10:25:11.546Z,20.83
2022-12-15T10:28:02.541Z,19.83
2022-12-15T10:30:29.756Z,20.90
2022-12-15T10:32:59.276Z,20.30
2022-12-15T10:35:30.023Z,20.13
2022-12-15T10:38:06.760Z,20.93
2022-12-15T10:40:50.184Z,20.00
2022-12-15T10:43:26.787Z,18.23
2022-12-15T10:46:14.017Z,20.67
2022-12-15T10:48:42.697Z,19.57
2022-12-15T10:51:32.783Z,19.47
2022-12-15T10:54:05.292Z,20.73
2022-12-15T10:56:34.288Z,19.67
2022-12-15T10:59:23.577Z,19.30
2022-12-15T11:01:51.561Z,17.93
2022-12-15T11:04:32.413Z,18.50
2022-12-15T11:07:01.623Z,18.70
2022-12-15T11:09:37.267Z,19.73
2022-12-15T11:12:43.977Z,19.23
2022-12-15T11:15:31.142Z,20.17
2022-12-15T11:18:35.510Z,20.03
2022-12-15T11:21:11.829Z,20.70
2022-12-15T11:23:38.492Z,21.80
2022-12-15T11:26:46.978Z,22.03
2022-12-15T11:29:30.138Z,20.53
2022-12-15T11:32:01.447Z,20.93
2022-12-15T11:34:46.467Z,20.47
2022-12-15T11:37:40.184Z,22.03
2022-12-15T11:40:39.828Z,20.80
2022-12-15T11:43:25.460Z,20.53
2022-12-15T11:46:17.357Z,21.00
2022-12-15T11:49:11.862Z,22.33
2022-12-15T11:51:52.800Z,20.70
2022-12-15T11:54:19.680Z,21.20
2022-12-15T11:57:21.561Z,21.63
2022-12-15T12:00:06.893Z,21.30
2022-12-15T12:02:52.022Z,20.33
2022-12-15T12:05:31.142Z,23.00
2022-12-15T12:08:09.033Z,20.77
2022-12-15T12:11:02.538Z,20.67
2022-12-15T12:13:43.550Z,22.27
2022-12-15T12:16:28.172Z,21.13
2022-12-15T12:19:02.618Z,22.03
2022-12-15T12:21:43.078Z,21.33
2022-12-15T12:24:09.906Z,23.53
2022-12-15T12:26:50.685Z,22.60
2022-12-15T12:29:28.365Z,21.40
2022-12-15T12:32:04.117Z,21.20
2022-12-15T12:35:30.597Z,22.87
2022-12-15T12:38:07.491Z,21.20
2022-12-15T12:40:40.290Z,22.27
2022-12-15T12:43:14.500Z,22.37
2022-12-15T12:46:04.057Z,22.73
2022-12-15T12:48:40.288Z,21.07
2022-12-15T12:51:12.763Z,21.53
2022-12-15T12:53:39.689Z,20.93
2022-12-15T12:56:06.874Z,20.80
2022-12-15T12:58:33.562Z,20.17
2022-12-15T13:01:25.978Z,21.80
2022-12-15T13:04:13.942Z,21.33
2022-12-15T13:06:40.831Z,20.70
2022-12-15T13:09:16.914Z,22.50
2022-12-15T13:11:52.648Z,23.03
2022-12-15T13:14:34.798Z,22.17
2022-12-15T13:17:27.702Z,20.90
2022-12-15T13:20:00.634Z,21.70
2022-12-15T13:22:35.753Z,19.43
2022-12-15T13:25:23.131Z,21.53
2022-12-15T13:27:57.832Z,20.63
2022-12-15T13:30:25.005Z,20.27
2022-12-15T13:32:54.592Z,20.37
2022-12-15T13:35:31.258Z,20.27
2022-12-15T13:38:03.197Z,20.77
2022-12-15T13:40:35.854Z,21.33
2022-12-15T13:43:05.336Z,20.73
2022-12-15T13:45:42.983Z,21.33
2022-12-15T13:48:35.017Z,22.10
2022-12-15T13:51:26.977Z,21.63
2022-12-15T13:54:04.273Z,21.63
2022-12-15T13:56:58.752Z,23.80
2022-12-15T13:59:35.000Z,23.77
2022-12-15T14:02:02.001Z,22.93
2022-12-15T14:04:28.948Z,22.17
2022-12-15T14:07:00.149Z,21.67
2022-12-15T14:09:36.695Z,21.97
2022-12-15T14:12:06.223Z,20.80
2022-12-15T14:14:36.938Z,19.77
2022-12-15T14:17:09.086Z,20.43
2022-12-15T14:19:41.359Z,20.47
2022-12-15T14:22:29.712Z,19.87
2022-12-15T14:25:04.351Z,19.47
2022-12-15T14:27:33.446Z,18.10
2022-12-15T14:30:25.527Z,19.57
2022-12-15T14:33:09.219Z,21.40
2022-12-15T14:35:40.191Z,17.60
2022-12-15T14:38:13.034Z,18.60
2022-12-15T14:40:41.125Z,16.80
2022-12-15T14:43:17.448Z,16.87
2022-12-15T14:45:44.321Z,17.97
2022-12-15T14:48:40.455Z,15.47
2022-12-15T14:51:11.177Z,16.60
2022-12-15T14:53:40.574Z,16.90
2022-12-15T14:56:27.621Z,16.53
2022-12-15T14:59:04.425Z,16.90
2022-12-15T15:01:57.912Z,16.10
2022-12-15T15:04:31.274Z,16.30
2022-12-15T15:07:07.685Z,16.73
2022-12-15T15:09:43.494Z,17.00
2022-12-15T15:12:17.280Z,16.23
2022-12-15T15:15:00.093Z,16.67
2022-12-15T15:17:37.481Z,17.73
2022-12-15T15:20:16.508Z,16.57
2022-12-15T15:22:46.120Z,17.43
2022-12-15T15:25:23.057Z,16.63
2022-12-15T15:27:50.070Z,16.93
2022-12-15T15:30:20.246Z,16.20
2022-12-15T15:32:58.229Z,17.97
2022-12-15T15:35:30.847Z,16.60
2022-12-15T15:38:27.018Z,17.47
2022-12-15T15:41:00.123Z,16.67
2022-12-15T15:43:28.356Z,19.00
2022-12-15T15:46:02.729Z,16.17
2022-12-15T15:48:39.494Z,17.27
2022-12-15T15:51:08.800Z,18.17
2022-12-15T15:53:36.216Z,18.93
2022-12-15T15:56:06.566Z,18.77
2022-12-15T15:58:35.140Z,19.30
2022-12-15T16:01:06.741Z,18.67
2022-12-15T16:03:36.672Z,18.77
2022-12-15T16:06:06.361Z,17.93
2022-12-15T16:08:36.896Z,18.93
2022-12-15T16:11:03.788Z,18.27
2022-12-15T16:13:30.538Z,17.87
2022-12-15T16:15:57.486Z,19.10
2022-12-15T16:18:24.301Z,18.80
2022-12-15T16:20:52.095Z,18.53
2022-12-15T16:23:22.535Z,18.50
2022-12-15T16:26:00.646Z,19.07
2022-12-15T16:28:32.188Z,17.40
2022-12-15T16:30:59.340Z,18.47
2022-12-15T16:33:26.161Z,17.90
2022-12-15T16:35:53.844Z,17.93
2022-12-15T16:38:25.737Z,19.50
2022-12-15T16:40:52.967Z,18.40
2022-12-15T16:43:24.602Z,19.20
2022-12-15T16:45:53.235Z,19.60
2022-12-15T16:48:21.048Z,18.50
2022-12-15T16:50:53.594Z,17.77
2022-12-15T16:53:29.252Z,21.43
2022-12-15T16:55:58.435Z,18.67
2022-12-15T16:58:27.415Z,19.37
2022-12-15T17:00:54.659Z,19.60
2022-12-15T17:03:28.874Z,20.27
2022-12-15T17:05:58.067Z,19.73
2022-12-15T17:08:51.055Z,20.30
2022-12-15T17:11:24.182Z,18.47
2022-12-15T17:13:52.666Z,18.60
2022-12-15T17:16:21.132Z,19.17
2022-12-15T17:18:49.752Z,18.00
2022-12-15T17:21:19.761Z,19.53
2022-12-15T17:23:50.422Z,20.23
2022-12-15T17:26:29.034Z,20.00
2022-12-15T17:29:00.948Z,19.27
2022-12-15T17:31:34.779Z,18.47
2022-12-15T17:34:02.699Z,18.20
2022-12-15T17:36:29.445Z,18.00
2022-12-15T17:39:01.718Z,19.50
2022-12-15T17:41:58.015Z,19.40
2022-12-15T17:44:39.293Z,18.60
2022-12-15T17:47:08.547Z,17.93
2022-12-15T17:49:37.487Z,18.17
2022-12-15T17:52:18.946Z,18.47
2022-12-15T17:54:45.768Z,20.67
2022-12-15T17:57:12.992Z,19.43
2022-12-15T17:59:39.883Z,17.77
2022-12-15T18:02:08.990Z,18.50
2022-12-15T18:04:35.786Z,18.80
2022-12-15T18:07:02.872Z,19.20
2022-12-15T18:09:31.032Z,18.00
2022-12-15T18:11:58.191Z,18.73
2022-12-15T18:14:25.003Z,16.80
2022-12-15T18:16:51.796Z,18.57
2022-12-15T18:19:18.461Z,18.77
2022-12-15T18:21:45.239Z,18.10
2022-12-15T18:24:17.212Z,18.77
2022-12-15T18:26:44.343Z,16.90
2022-12-15T18:29:14.053Z,18.17
2022-12-15T18:31:41.955Z,16.37
2022-12-15T18:34:13.941Z,17.50
2022-12-15T18:36:41.022Z,17.60
2022-12-15T18:39:20.036Z,17.40
2022-12-15T18:41:48.268Z,16.80
2022-12-15T18:44:33.167Z,17.43
2022-12-15T18:47:00.157Z,17.47
2022-12-15T18:49:26.951Z,17.97
2022-12-15T18:51:53.847Z,17.20
2022-12-15T18:54:23.612Z,17.83
2022-12-15T18:56:50.877Z,18.47
2022-12-15T18:59:19.165Z,17.57
2022-12-15T19:01:48.303Z,17.00
2022-12-15T19:04:15.363Z,17.60
2022-12-15T19:06:43.015Z,18.50
2022-12-15T19:09:21.717Z,16.87
2022-12-15T19:12:08.053Z,16.13
2022-12-15T19:14:41.077Z,17.43
2022-12-15T19:17:30.903Z,16.57
2022-12-15T19:20:16.476Z,16.00
2022-12-15T19:22:43.974Z,16.70
2022-12-15T19:25:14.057Z,17.13
2022-12-15T19:27:41.023Z,17.43
2022-12-15T19:30:19.467Z,17.63
2022-12-15T19:32:46.585Z,16.90
2022-12-15T19:35:13.467Z,16.67
2022-12-15T19:37:42.942Z,16.50
2022-12-15T19:40:22.214Z,16.27
2022-12-15T19:42:49.671Z,16.70
2022-12-15T19:45:19.690Z,16.43
2022-12-15T19:47:46.881Z,16.37
2022-12-15T19:50:28.802Z,17.00
2022-12-15T19:53:01.909Z,15.80
2022-12-15T19:55:34.754Z,16.40
2022-12-15T19:58:25.261Z,16.43
2022-12-15T20:00:57.014Z,16.73
2022-12-15T20:03:24.991Z,14.77
2022-12-15T20:05:55.710Z,17.00
2022-12-15T20:08:25.268Z,16.67
2022-12-15T20:10:53.835Z,16.50
2022-12-15T20:13:22.178Z,16.23
2022-12-15T20:15:49.427Z,17.23
2022-12-15T20:18:16.202Z,16.23
2022-12-15T20:20:45.443Z,16.70
2022-12-15T20:23:17.257Z,16.13
2022-12-15T20:25:45.032Z,16.97
2022-12-15T20:28:21.659Z,16.40
2022-12-15T20:30:49.473Z,16.63
2022-12-15T20:33:17.133Z,17.10
2022-12-15T20:35:46.424Z,16.57
2022-12-15T20:38:27.683Z,17.30
2022-12-15T20:40:55.652Z,16.63
2022-12-15T20:43:26.085Z,17.73
2022-12-15T20:46:23.182Z,16.40
2022-12-15T20:48:51.716Z,15.50
2022-12-15T20:51:30.548Z,14.73
2022-12-15T20:54:00.785Z,17.33
2022-12-15T20:56:27.733Z,16.23
2022-12-15T20:58:57.164Z,14.67
2022-12-15T21:01:33.645Z,15.90
2022-12-15T21:04:03.497Z,14.83
2022-12-15T21:06:30.963Z,16.60
2022-12-15T21:08:57.715Z,15.47
2022-12-15T21:11:27.416Z,16.57
2022-12-15T21:13:56.717Z,15.03
2022-12-15T21:16:26.653Z,15.50
2022-12-15T21:21:47.670Z,14.53
2022-12-15T21:24:24.660Z,16.70
2022-12-15T21:26:52.199Z,16.23
2022-12-15T21:29:21.777Z,16.43
2022-12-15T21:31:49.134Z,15.33
2022-12-15T21:34:16.191Z,15.83
2022-12-15T21:36:45.447Z,16.27
2022-12-15T21:39:20.284Z,15.17
2022-12-15T21:41:46.910Z,16.70
2022-12-15T21:44:14.856Z,15.40
2022-12-15T21:46:41.961Z,15.57
2022-12-15T21:49:14.678Z,15.33
2022-12-15T21:52:04.387Z,15.30
2022-12-15T21:54:33.200Z,15.30
2022-12-15T21:57:00.310Z,14.43
2022-12-15T21:59:30.493Z,15.23
2022-12-15T22:01:59.212Z,14.93
2022-12-15T22:04:30.366Z,14.10
2022-12-15T22:06:57.069Z,15.40
2022-12-15T22:09:23.941Z,15.37
2022-12-15T22:11:53.791Z,15.17
2022-12-15T22:14:27.785Z,15.50
2022-12-15T22:16:55.225Z,15.87
2022-12-15T22:19:22.815Z,15.30
2022-12-15T22:21:50.040Z,15.37
2022-12-15T22:24:16.793Z,16.33
2022-12-15T22:26:43.669Z,16.47
2022-12-15T22:29:16.679Z,16.10
2022-12-15T22:31:43.781Z,16.57
2022-12-15T22:34:17.060Z,16.20
2022-12-15T22:36:44.376Z,16.33
2022-12-15T22:39:11.383Z,15.50
2022-12-15T22:41:44.646Z,16.20
2022-12-15T22:44:21.233Z,16.83
2022-12-15T22:46:50.297Z,17.30
2022-12-15T22:49:24.126Z,16.60
2022-12-15T22:51:51.018Z,15.67
2022-12-15T22:54:23.951Z,16.13
2022-12-15T22:57:04.219Z,16.73
2022-12-15T22:59:43.968Z,16.20
2022-12-15T23:02:11.326Z,16.57
2022-12-15T23:04:40.137Z,17.87
2022-12-15T23:07:12.289Z,16.10
2022-12-15T23:09:39.051Z,17.67
2022-12-15T23:12:05.994Z,17.37
2022-12-15T23:14:51.507Z,15.50
2022-12-15T23:17:18.392Z,16.27
2022-12-15T23:19:46.205Z,15.77
2022-12-15T23:22:18.018Z,16.07
2022-12-15T23:24:44.655Z,14.77
2022-12-15T23:27:11.839Z,16.70
2022-12-15T23:29:38.495Z,16.47
2022-12-15T23:32:06.235Z,16.10
2022-12-15T23:34:32.979Z,17.60
2022-12-15T23:36:59.873Z,15.90
2022-12-15T23:39:26.673Z,16.47
2022-12-15T23:41:53.500Z,16.23
2022-12-15T23:44:20.166Z,15.53
2022-12-15T23:46:47.014Z,17.97
2022-12-15T23:49:13.733Z,15.70
2022-12-15T23:51:40.407Z,15.73
2022-12-15T23:54:07.136Z,16.60
2022-12-15T23:56:34.034Z,16.90
2022-12-15T23:59:00.689Z,16.50
